Fjordprinsessen — LJVE — position and weather

sailwx.info

Track history (hours):
 
Tides and Currents Weather Stations Pressure Air Temp Water Temp Dewpoint Dewpoint Depression Visibility Wind Speed Wind Dir Waves Ship Positions

Fjordprinsessen

Last reported at 2015-Apr-22 03:31 UTC. Time now 2015-Apr-22 03:49 UTC.
Position N 66°35' E 012°13'.

Length 30 m; draft 2 m.

Type: High speed craft. MMSI: 259604000.

Date/timePositionNaut miles runAvg speedWind from/ knotsBaromVisibWave heightAir tempDewpointWater temp
2015-Apr-22 03:31N 66°35' E 012°13'0 0.0
2015-Apr-22 01:32N 66°35' E 012°13'0 0.0
2015-Apr-22 00:18N 66°35' E 012°13'0 0.0
2015-Apr-21 23:23N 66°35' E 012°13'6 1.5
2015-Apr-21 19:34N 66°30' E 012°07'1514.6
2015-Apr-21 18:33N 66°22' E 012°37'1010.2
2015-Apr-21 17:33N 66°32' E 012°38'1211.8
2015-Apr-21 16:33N 66°22' E 012°22'1513.5
2015-Apr-21 15:27N 66°21' E 012°59'19 2.3
2015-Apr-21 07:05N 66°03' E 012°39'1620.4
2015-Apr-21 06:19N 66°17' E 012°57'911.3
2015-Apr-21 05:33N 66°23' E 012°42'1615.5
2015-Apr-21 04:32N 66°30' E 012°06'6 5.4
2015-Apr-21 03:27N 66°35' E 012°13'0 0.0
2015-Apr-21 00:31N 66°35' E 012°13'0 0.0
2015-Apr-20 23:32N 66°35' E 012°13'0 0.0
2015-Apr-20 22:25N 66°35' E 012°13'0 0.0
2015-Apr-20 20:18N 66°35' E 012°13'6 7.7
2015-Apr-20 19:33N 66°29' E 012°10'1312.7
2015-Apr-20 18:31N 66°22' E 012°37'1212.1
2015-Apr-20 17:33N 66°32' E 012°22'10 9.6
2015-Apr-20 16:33N 66°22' E 012°22'1414.0
2015-Apr-20 15:32N 66°21' E 012°58'6 0.7
2015-Apr-20 05:33N 66°23' E 012°43'1614.2
2015-Apr-20 04:25N 66°30' E 012°07'6 0.9
2015-Apr-19 22:24N 66°35' E 012°13'5 2.5
2015-Apr-19 20:33N 66°30' E 012°14'1615.6
2015-Apr-19 19:33N 66°24' E 012°49'0 0.1
2015-Apr-19 17:33N 66°24' E 012°49'1616.0
2015-Apr-19 16:33N 66°29' E 012°11'1312.9
2015-Apr-19 15:33N 66°31' E 012°43'1110.7
2015-Apr-19 14:33N 66°21' E 012°52'7 7.3
2015-Apr-19 13:33N 66°24' E 012°34'1414.0
2015-Apr-19 12:33N 66°34' E 012°12'1 0.7
2015-Apr-19 11:29N 66°35' E 012°13'0 0.0
2015-Apr-19 09:22N 66°35' E 012°13'0 0.0
2015-Apr-19 08:17N 66°35' E 012°13'0 0.0
2015-Apr-19 07:28N 66°35' E 012°13'0 0.0
2015-Apr-19 06:32N 66°35' E 012°13'0 0.0
2015-Apr-19 05:33N 66°35' E 012°13'0 0.0
2015-Apr-19 04:33N 66°35' E 012°13'0 0.0
2015-Apr-19 03:29N 66°35' E 012°13'0 0.0
2015-Apr-18 23:24N 66°35' E 012°13'0 0.0
2015-Apr-18 22:05N 66°35' E 012°13'3 1.3
2015-Apr-18 19:33N 66°32' E 012°12'1414.0
2015-Apr-18 18:33N 66°22' E 012°37'1110.6
2015-Apr-18 17:33N 66°31' E 012°24'8 8.4
2015-Apr-18 16:33N 66°23' E 012°21'1614.4
2015-Apr-18 15:28N 66°20' E 012°60'1 0.1
2015-Apr-18 06:15N 66°20' E 012°59'811.5
2015-Apr-18 05:33N 66°23' E 012°40'1414.4
2015-Apr-18 04:33N 66°30' E 012°09'5 4.9
2015-Apr-18 03:28N 66°35' E 012°13'0 0.0
2015-Apr-18 01:17N 66°35' E 012°13'0 0.0
2015-Apr-18 00:10N 66°35' E 012°13'0 0.0
2015-Apr-17 20:29N 66°35' E 012°13'5 5.9
2015-Apr-17 19:33N 66°30' E 012°07'1514.7
2015-Apr-17 18:33N 66°22' E 012°37'1616.1
2015-Apr-17 17:32N 66°35' E 012°12'1313.5
2015-Apr-17 16:33N 66°22' E 012°23'1512.9
2015-Apr-17 15:25N 66°20' E 012°60'4 1.9
2015-Apr-17 13:14N 66°17' E 012°57'1014.9
2015-Apr-17 12:33N 66°25' E 012°42'1515.2
2015-Apr-17 11:33N 66°30' E 012°06'1514.8
2015-Apr-17 10:33N 66°22' E 012°38'1612.3
2015-Apr-17 09:15N 66°07' E 012°46'11 3.8
2015-Apr-17 06:21N 66°17' E 012°56'911.3
2015-Apr-17 05:33N 66°23' E 012°41'1515.2
2015-Apr-17 04:33N 66°30' E 012°07'5 1.7
2015-Apr-17 01:30N 66°35' E 012°13'0 0.0
2015-Apr-16 22:06N 66°35' E 012°13'0 0.0
2015-Apr-16 21:24N 66°35' E 012°13'0 0.0
2015-Apr-16 20:11N 66°35' E 012°13'812.6
2015-Apr-16 19:34N 66°27' E 012°16'1010.1
2015-Apr-16 18:33N 66°22' E 012°38'10 9.9
2015-Apr-16 17:33N 66°31' E 012°25'8 7.5
2015-Apr-16 16:34N 66°23' E 012°20'1614.3
2015-Apr-16 15:25N 66°20' E 012°60'4 0.4
2015-Apr-16 06:21N 66°17' E 012°57'911.3
2015-Apr-16 05:34N 66°23' E 012°40'1515.2
2015-Apr-16 04:33N 66°30' E 012°06'0 0.0
2015-Apr-15 19:32N 66°30' E 012°06'1515.3
2015-Apr-15 18:33N 66°22' E 012°37'1615.0
2015-Apr-15 17:28N 66°35' E 012°12'1314.6
2015-Apr-15 16:33N 66°22' E 012°22'1512.3
2015-Apr-15 15:19N 66°20' E 012°60'2 0.8
2015-Apr-15 13:13N 66°19' E 012°58'15 7.9
2015-Apr-15 11:18N 66°23' E 012°21'6 8.8
2015-Apr-15 10:33N 66°22' E 012°38'1612.0
2015-Apr-15 09:16N 66°07' E 012°48'10 3.6
2015-Apr-15 06:23N 66°17' E 012°57'911.4
2015-Apr-15 05:33N 66°23' E 012°39'1515.0
2015-Apr-15 04:34N 66°29' E 012°05'4 0.4
2015-Apr-14 19:33N 66°29' E 012°14'1111.4
2015-Apr-14 18:33N 66°23' E 012°39'1614.6
2015-Apr-14 17:28N 66°35' E 012°12'1314.7
2015-Apr-14 16:34N 66°22' E 012°22'1513.1
2015-Apr-14 15:26N 66°21' E 012°59'1 0.1
2015-Apr-14 06:16N 66°20' E 012°58'912.2
2015-Apr-14 05:33N 66°23' E 012°38'1513.6
2015-Apr-14 04:28N 66°30' E 012°06'6 5.8
2015-Apr-14 03:29N 66°35' E 012°13'0 0.0
2015-Apr-13 23:04N 66°35' E 012°13'0 0.0
2015-Apr-13 22:22N 66°35' E 012°13'6 2.1
2015-Apr-13 19:34N 66°30' E 012°06'1111.1
2015-Apr-13 18:34N 66°24' E 012°30'1211.4
2015-Apr-13 17:31N 66°34' E 012°14'1313.1
2015-Apr-13 16:34N 66°22' E 012°22'1512.7
2015-Apr-13 15:24N 66°20' E 012°59'3 0.4
2015-Apr-13 06:21N 66°17' E 012°57'911.4
2015-Apr-13 05:33N 66°23' E 012°40'1515.2
2015-Apr-13 04:33N 66°30' E 012°06'0 0.0
2015-Apr-12 20:33N 66°30' E 012°06'1514.8
2015-Apr-12 19:33N 66°22' E 012°37'3 1.7
2015-Apr-12 17:34N 66°23' E 012°45'1616.2
2015-Apr-12 16:33N 66°28' E 012°07'10 9.8
2015-Apr-12 15:34N 66°29' E 012°31'1313.2
2015-Apr-12 14:33N 66°21' E 012°58'1010.5
2015-Apr-12 13:34N 66°24' E 012°33'1413.5
2015-Apr-12 12:33N 66°35' E 012°13'0 0.3
2015-Apr-12 11:09N 66°35' E 012°13'0 0.0
2015-Apr-12 09:14N 66°35' E 012°13'0 0.0
2015-Apr-12 06:14N 66°35' E 012°13'0 0.0
2015-Apr-12 05:08N 66°35' E 012°13'  
Track history (hours):
 
Tides and Currents Weather Stations Pressure Air Temp Water Temp Dewpoint Dewpoint Depression Visibility Wind Speed Wind Dir Waves Ship Positions

Fjordprinsessen

Last reported at 2015-Apr-22 03:31 UTC. Time now 2015-Apr-22 03:49 UTC.
Position N 66°35' E 012°13'.

Length 30 m; draft 2 m.

Type: High speed craft. MMSI: 259604000.

Date/timePositionNaut miles runAvg speedWind from/ knotsBaromVisibWave heightAir tempDewpointWater temp
2015-Apr-22 03:31N 66°35' E 012°13'0 0.0
2015-Apr-22 01:32N 66°35' E 012°13'0 0.0
2015-Apr-22 00:18N 66°35' E 012°13'0 0.0
2015-Apr-21 23:23N 66°35' E 012°13'6 1.5
2015-Apr-21 19:34N 66°30' E 012°07'1514.6
2015-Apr-21 18:33N 66°22' E 012°37'1010.2
2015-Apr-21 17:33N 66°32' E 012°38'1211.8
2015-Apr-21 16:33N 66°22' E 012°22'1513.5
2015-Apr-21 15:27N 66°21' E 012°59'19 2.3
2015-Apr-21 07:05N 66°03' E 012°39'1620.4
2015-Apr-21 06:19N 66°17' E 012°57'911.3
2015-Apr-21 05:33N 66°23' E 012°42'1615.5
2015-Apr-21 04:32N 66°30' E 012°06'6 5.4
2015-Apr-21 03:27N 66°35' E 012°13'0 0.0
2015-Apr-21 00:31N 66°35' E 012°13'0 0.0
2015-Apr-20 23:32N 66°35' E 012°13'0 0.0
2015-Apr-20 22:25N 66°35' E 012°13'0 0.0
2015-Apr-20 20:18N 66°35' E 012°13'6 7.7
2015-Apr-20 19:33N 66°29' E 012°10'1312.7
2015-Apr-20 18:31N 66°22' E 012°37'1212.1
2015-Apr-20 17:33N 66°32' E 012°22'10 9.6
2015-Apr-20 16:33N 66°22' E 012°22'1414.0
2015-Apr-20 15:32N 66°21' E 012°58'6 0.7
2015-Apr-20 05:33N 66°23' E 012°43'1614.2
2015-Apr-20 04:25N 66°30' E 012°07'6 0.9
2015-Apr-19 22:24N 66°35' E 012°13'5 2.5
2015-Apr-19 20:33N 66°30' E 012°14'1615.6
2015-Apr-19 19:33N 66°24' E 012°49'0 0.1
2015-Apr-19 17:33N 66°24' E 012°49'1616.0
2015-Apr-19 16:33N 66°29' E 012°11'1312.9
2015-Apr-19 15:33N 66°31' E 012°43'1110.7
2015-Apr-19 14:33N 66°21' E 012°52'7 7.3
2015-Apr-19 13:33N 66°24' E 012°34'1414.0
2015-Apr-19 12:33N 66°34' E 012°12'1 0.7
2015-Apr-19 11:29N 66°35' E 012°13'0 0.0
2015-Apr-19 09:22N 66°35' E 012°13'0 0.0
2015-Apr-19 08:17N 66°35' E 012°13'0 0.0
2015-Apr-19 07:28N 66°35' E 012°13'0 0.0
2015-Apr-19 06:32N 66°35' E 012°13'0 0.0
2015-Apr-19 05:33N 66°35' E 012°13'0 0.0
2015-Apr-19 04:33N 66°35' E 012°13'0 0.0
2015-Apr-19 03:29N 66°35' E 012°13'0 0.0
2015-Apr-18 23:24N 66°35' E 012°13'0 0.0
2015-Apr-18 22:05N 66°35' E 012°13'3 1.3
2015-Apr-18 19:33N 66°32' E 012°12'1414.0
2015-Apr-18 18:33N 66°22' E 012°37'1110.6
2015-Apr-18 17:33N 66°31' E 012°24'8 8.4
2015-Apr-18 16:33N 66°23' E 012°21'1614.4
2015-Apr-18 15:28N 66°20' E 012°60'1 0.1
2015-Apr-18 06:15N 66°20' E 012°59'811.5
2015-Apr-18 05:33N 66°23' E 012°40'1414.4
2015-Apr-18 04:33N 66°30' E 012°09'5 4.9
2015-Apr-18 03:28N 66°35' E 012°13'0 0.0
2015-Apr-18 01:17N 66°35' E 012°13'0 0.0
2015-Apr-18 00:10N 66°35' E 012°13'0 0.0
2015-Apr-17 20:29N 66°35' E 012°13'5 5.9
2015-Apr-17 19:33N 66°30' E 012°07'1514.7
2015-Apr-17 18:33N 66°22' E 012°37'1616.1
2015-Apr-17 17:32N 66°35' E 012°12'1313.5
2015-Apr-17 16:33N 66°22' E 012°23'1512.9
2015-Apr-17 15:25N 66°20' E 012°60'4 1.9
2015-Apr-17 13:14N 66°17' E 012°57'1014.9
2015-Apr-17 12:33N 66°25' E 012°42'1515.2
2015-Apr-17 11:33N 66°30' E 012°06'1514.8
2015-Apr-17 10:33N 66°22' E 012°38'1612.3
2015-Apr-17 09:15N 66°07' E 012°46'11 3.8
2015-Apr-17 06:21N 66°17' E 012°56'911.3
2015-Apr-17 05:33N 66°23' E 012°41'1515.2
2015-Apr-17 04:33N 66°30' E 012°07'5 1.7
2015-Apr-17 01:30N 66°35' E 012°13'0 0.0
2015-Apr-16 22:06N 66°35' E 012°13'0 0.0
2015-Apr-16 21:24N 66°35' E 012°13'0 0.0
2015-Apr-16 20:11N 66°35' E 012°13'812.6
2015-Apr-16 19:34N 66°27' E 012°16'1010.1
2015-Apr-16 18:33N 66°22' E 012°38'10 9.9
2015-Apr-16 17:33N 66°31' E 012°25'8 7.5
2015-Apr-16 16:34N 66°23' E 012°20'1614.3
2015-Apr-16 15:25N 66°20' E 012°60'4 0.4
2015-Apr-16 06:21N 66°17' E 012°57'911.3
2015-Apr-16 05:34N 66°23' E 012°40'1515.2
2015-Apr-16 04:33N 66°30' E 012°06'0 0.0
2015-Apr-15 19:32N 66°30' E 012°06'1515.3
2015-Apr-15 18:33N 66°22' E 012°37'1615.0
2015-Apr-15 17:28N 66°35' E 012°12'1314.6
2015-Apr-15 16:33N 66°22' E 012°22'1512.3
2015-Apr-15 15:19N 66°20' E 012°60'2 0.8
2015-Apr-15 13:13N 66°19' E 012°58'15 7.9
2015-Apr-15 11:18N 66°23' E 012°21'6 8.8
2015-Apr-15 10:33N 66°22' E 012°38'1612.0
2015-Apr-15 09:16N 66°07' E 012°48'10 3.6
2015-Apr-15 06:23N 66°17' E 012°57'911.4
2015-Apr-15 05:33N 66°23' E 012°39'1515.0
2015-Apr-15 04:34N 66°29' E 012°05'4 0.4
2015-Apr-14 19:33N 66°29' E 012°14'1111.4
2015-Apr-14 18:33N 66°23' E 012°39'1614.6
2015-Apr-14 17:28N 66°35' E 012°12'1314.7
2015-Apr-14 16:34N 66°22' E 012°22'1513.1
2015-Apr-14 15:26N 66°21' E 012°59'1 0.1
2015-Apr-14 06:16N 66°20' E 012°58'912.2
2015-Apr-14 05:33N 66°23' E 012°38'1513.6
2015-Apr-14 04:28N 66°30' E 012°06'6 5.8
2015-Apr-14 03:29N 66°35' E 012°13'0 0.0
2015-Apr-13 23:04N 66°35' E 012°13'0 0.0
2015-Apr-13 22:22N 66°35' E 012°13'6 2.1
2015-Apr-13 19:34N 66°30' E 012°06'1111.1
2015-Apr-13 18:34N 66°24' E 012°30'1211.4
2015-Apr-13 17:31N 66°34' E 012°14'1313.1
2015-Apr-13 16:34N 66°22' E 012°22'1512.7
2015-Apr-13 15:24N 66°20' E 012°59'3 0.4
2015-Apr-13 06:21N 66°17' E 012°57'911.4
2015-Apr-13 05:33N 66°23' E 012°40'1515.2
2015-Apr-13 04:33N 66°30' E 012°06'0 0.0
2015-Apr-12 20:33N 66°30' E 012°06'1514.8
2015-Apr-12 19:33N 66°22' E 012°37'3 1.7
2015-Apr-12 17:34N 66°23' E 012°45'1616.2
2015-Apr-12 16:33N 66°28' E 012°07'10 9.8
2015-Apr-12 15:34N 66°29' E 012°31'1313.2
2015-Apr-12 14:33N 66°21' E 012°58'1010.5
2015-Apr-12 13:34N 66°24' E 012°33'1413.5
2015-Apr-12 12:33N 66°35' E 012°13'0 0.3
2015-Apr-12 11:09N 66°35' E 012°13'0 0.0
2015-Apr-12 09:14N 66°35' E 012°13'0 0.0
2015-Apr-12 06:14N 66°35' E 012°13'0 0.0
2015-Apr-12 05:08N 66°35' E 012°13'  

Dump ship's entire track history